sensor_id;sensor_type;location;lat;lon;timestamp;P1;durP1;ratioP1;P2;durP2;ratioP2
9819;SDS011;4949;48.482;9.206;2022-07-06T00:01:06;2.67;;;2.47;;
9819;SDS011;4949;48.482;9.206;2022-07-06T00:06:07;3.80;;;2.50;;
9819;SDS011;4949;48.482;9.206;2022-07-06T00:11:07;3.47;;;3.17;;
9819;SDS011;4949;48.482;9.206;2022-07-06T00:16:08;2.60;;;2.40;;
9819;SDS011;4949;48.482;9.206;2022-07-06T00:21:08;3.10;;;2.80;;
9819;SDS011;4949;48.482;9.206;2022-07-06T00:26:09;3.60;;;2.17;;
9819;SDS011;4949;48.482;9.206;2022-07-06T00:31:09;2.73;;;2.53;;
9819;SDS011;4949;48.482;9.206;2022-07-06T00:36:09;2.73;;;2.50;;
9819;SDS011;4949;48.482;9.206;2022-07-06T00:41:11;2.87;;;2.57;;
9819;SDS011;4949;48.482;9.206;2022-07-06T00:46:13;3.63;;;2.73;;
9819;SDS011;4949;48.482;9.206;2022-07-06T00:51:13;2.83;;;2.57;;
9819;SDS011;4949;48.482;9.206;2022-07-06T00:56:14;2.90;;;2.60;;
9819;SDS011;4949;48.482;9.206;2022-07-06T01:01:14;3.10;;;2.90;;
9819;SDS011;4949;48.482;9.206;2022-07-06T01:06:15;3.20;;;2.73;;
9819;SDS011;4949;48.482;9.206;2022-07-06T01:11:18;3.13;;;2.83;;
9819;SDS011;4949;48.482;9.206;2022-07-06T01:16:21;3.10;;;2.80;;
9819;SDS011;4949;48.482;9.206;2022-07-06T01:21:21;3.40;;;3.10;;
9819;SDS011;4949;48.482;9.206;2022-07-06T01:26:22;3.20;;;2.90;;
9819;SDS011;4949;48.482;9.206;2022-07-06T01:31:25;3.47;;;3.17;;
9819;SDS011;4949;48.482;9.206;2022-07-06T01:36:28;4.43;;;3.47;;
9819;SDS011;4949;48.482;9.206;2022-07-06T01:41:28;3.77;;;3.47;;
9819;SDS011;4949;48.482;9.206;2022-07-06T01:46:29;2.93;;;2.73;;
9819;SDS011;4949;48.482;9.206;2022-07-06T01:51:32;3.60;;;3.30;;
9819;SDS011;4949;48.482;9.206;2022-07-06T01:56:32;3.60;;;3.30;;
9819;SDS011;4949;48.482;9.206;2022-07-06T02:01:33;4.13;;;3.43;;
9819;SDS011;4949;48.482;9.206;2022-07-06T02:06:33;3.60;;;3.20;;
9819;SDS011;4949;48.482;9.206;2022-07-06T02:11:33;3.50;;;3.20;;
9819;SDS011;4949;48.482;9.206;2022-07-06T02:16:36;4.70;;;3.20;;
9819;SDS011;4949;48.482;9.206;2022-07-06T02:21:36;3.73;;;3.43;;
9819;SDS011;4949;48.482;9.206;2022-07-06T02:26:37;3.30;;;3.00;;
9819;SDS011;4949;48.482;9.206;2022-07-06T02:31:37;3.50;;;3.00;;
9819;SDS011;4949;48.482;9.206;2022-07-06T02:36:37;5.33;;;3.60;;
9819;SDS011;4949;48.482;9.206;2022-07-06T02:41:40;3.83;;;3.53;;
9819;SDS011;4949;48.482;9.206;2022-07-06T02:46:40;3.53;;;3.33;;
9819;SDS011;4949;48.482;9.206;2022-07-06T02:51:40;3.97;;;3.67;;
9819;SDS011;4949;48.482;9.206;2022-07-06T02:56:43;3.80;;;3.50;;
9819;SDS011;4949;48.482;9.206;2022-07-06T03:01:44;3.40;;;3.10;;
9819;SDS011;4949;48.482;9.206;2022-07-06T03:06:45;4.40;;;4.00;;
9819;SDS011;4949;48.482;9.206;2022-07-06T03:11:48;3.90;;;3.60;;
9819;SDS011;4949;48.482;9.206;2022-07-06T03:16:51;4.70;;;4.30;;
9819;SDS011;4949;48.482;9.206;2022-07-06T03:21:54;4.07;;;3.77;;
9819;SDS011;4949;48.482;9.206;2022-07-06T03:26:54;4.20;;;3.90;;
9819;SDS011;4949;48.482;9.206;2022-07-06T03:31:57;4.17;;;3.83;;
9819;SDS011;4949;48.482;9.206;2022-07-06T03:36:57;4.17;;;3.87;;
9819;SDS011;4949;48.482;9.206;2022-07-06T03:42:00;4.60;;;4.20;;
9819;SDS011;4949;48.482;9.206;2022-07-06T03:47:03;3.90;;;3.60;;
9819;SDS011;4949;48.482;9.206;2022-07-06T03:52:05;4.37;;;4.07;;
9819;SDS011;4949;48.482;9.206;2022-07-06T03:57:05;5.60;;;4.60;;
9819;SDS011;4949;48.482;9.206;2022-07-06T04:02:10;4.30;;;4.00;;
9819;SDS011;4949;48.482;9.206;2022-07-06T04:07:11;4.73;;;4.27;;
9819;SDS011;4949;48.482;9.206;2022-07-06T04:12:11;4.33;;;3.93;;
9819;SDS011;4949;48.482;9.206;2022-07-06T04:17:11;4.07;;;3.77;;
9819;SDS011;4949;48.482;9.206;2022-07-06T04:22:30;5.23;;;4.40;;
9819;SDS011;4949;48.482;9.206;2022-07-06T04:27:33;6.10;;;4.17;;
9819;SDS011;4949;48.482;9.206;2022-07-06T04:32:34;4.20;;;3.90;;
9819;SDS011;4949;48.482;9.206;2022-07-06T04:37:34;4.30;;;3.93;;
9819;SDS011;4949;48.482;9.206;2022-07-06T04:42:35;4.40;;;3.87;;
9819;SDS011;4949;48.482;9.206;2022-07-06T04:47:35;7.83;;;4.70;;
9819;SDS011;4949;48.482;9.206;2022-07-06T04:52:37;4.03;;;3.73;;
9819;SDS011;4949;48.482;9.206;2022-07-06T04:57:38;4.30;;;4.00;;
9819;SDS011;4949;48.482;9.206;2022-07-06T05:02:38;4.70;;;4.40;;
9819;SDS011;4949;48.482;9.206;2022-07-06T05:07:39;5.93;;;4.40;;
9819;SDS011;4949;48.482;9.206;2022-07-06T05:12:39;4.33;;;3.93;;
9819;SDS011;4949;48.482;9.206;2022-07-06T05:17:43;5.10;;;4.70;;
9819;SDS011;4949;48.482;9.206;2022-07-06T05:22:43;4.90;;;4.50;;
9819;SDS011;4949;48.482;9.206;2022-07-06T05:27:43;5.27;;;4.17;;
9819;SDS011;4949;48.482;9.206;2022-07-06T05:32:48;4.33;;;3.93;;
9819;SDS011;4949;48.482;9.206;2022-07-06T05:37:49;5.07;;;4.10;;
9819;SDS011;4949;48.482;9.206;2022-07-06T05:42:49;4.43;;;4.03;;
9819;SDS011;4949;48.482;9.206;2022-07-06T05:47:49;4.33;;;3.87;;
9819;SDS011;4949;48.482;9.206;2022-07-06T05:53:08;5.40;;;4.80;;
9819;SDS011;4949;48.482;9.206;2022-07-06T05:58:08;5.50;;;4.03;;
9819;SDS011;4949;48.482;9.206;2022-07-06T06:03:09;5.37;;;4.90;;
9819;SDS011;4949;48.482;9.206;2022-07-06T06:08:09;4.40;;;4.00;;
9819;SDS011;4949;48.482;9.206;2022-07-06T06:13:10;5.10;;;4.60;;
9819;SDS011;4949;48.482;9.206;2022-07-06T06:18:10;4.83;;;4.50;;
9819;SDS011;4949;48.482;9.206;2022-07-06T06:23:10;4.67;;;4.07;;
9819;SDS011;4949;48.482;9.206;2022-07-06T06:28:11;4.70;;;4.33;;
9819;SDS011;4949;48.482;9.206;2022-07-06T06:33:13;4.43;;;4.10;;
9819;SDS011;4949;48.482;9.206;2022-07-06T06:38:16;5.97;;;5.20;;
9819;SDS011;4949;48.482;9.206;2022-07-06T06:43:18;4.60;;;4.20;;
9819;SDS011;4949;48.482;9.206;2022-07-06T06:48:18;5.90;;;4.43;;
9819;SDS011;4949;48.482;9.206;2022-07-06T06:53:18;4.67;;;3.97;;
9819;SDS011;4949;48.482;9.206;2022-07-06T06:58:21;5.30;;;3.90;;
9819;SDS011;4949;48.482;9.206;2022-07-06T07:03:25;5.60;;;4.87;;
9819;SDS011;4949;48.482;9.206;2022-07-06T07:08:25;4.77;;;4.37;;
9819;SDS011;4949;48.482;9.206;2022-07-06T07:13:25;6.90;;;4.20;;
9819;SDS011;4949;48.482;9.206;2022-07-06T07:18:28;4.73;;;4.27;;
9819;SDS011;4949;48.482;9.206;2022-07-06T07:23:28;4.60;;;3.87;;
9819;SDS011;4949;48.482;9.206;2022-07-06T07:28:28;5.83;;;5.33;;
9819;SDS011;4949;48.482;9.206;2022-07-06T07:33:29;4.80;;;4.40;;
9819;SDS011;4949;48.482;9.206;2022-07-06T07:38:34;4.97;;;4.47;;
9819;SDS011;4949;48.482;9.206;2022-07-06T07:43:34;4.97;;;3.80;;
9819;SDS011;4949;48.482;9.206;2022-07-06T07:48:34;4.23;;;3.83;;
9819;SDS011;4949;48.482;9.206;2022-07-06T07:53:37;4.37;;;3.70;;
9819;SDS011;4949;48.482;9.206;2022-07-06T07:58:38;5.80;;;4.07;;
9819;SDS011;4949;48.482;9.206;2022-07-06T08:03:38;4.80;;;4.40;;
9819;SDS011;4949;48.482;9.206;2022-07-06T08:08:41;6.37;;;5.07;;
9819;SDS011;4949;48.482;9.206;2022-07-06T08:13:41;5.10;;;4.60;;
9819;SDS011;4949;48.482;9.206;2022-07-06T08:18:42;4.60;;;4.10;;
9819;SDS011;4949;48.482;9.206;2022-07-06T08:23:44;4.80;;;4.40;;
9819;SDS011;4949;48.482;9.206;2022-07-06T08:28:45;4.70;;;4.13;;
9819;SDS011;4949;48.482;9.206;2022-07-06T08:33:46;5.57;;;4.97;;
9819;SDS011;4949;48.482;9.206;2022-07-06T08:38:47;8.00;;;4.77;;
9819;SDS011;4949;48.482;9.206;2022-07-06T08:43:48;5.43;;;4.93;;
9819;SDS011;4949;48.482;9.206;2022-07-06T08:48:54;5.40;;;4.90;;
9819;SDS011;4949;48.482;9.206;2022-07-06T08:53:56;4.10;;;3.80;;
9819;SDS011;4949;48.482;9.206;2022-07-06T08:58:59;5.93;;;4.60;;
9819;SDS011;4949;48.482;9.206;2022-07-06T09:04:00;5.03;;;4.53;;
9819;SDS011;4949;48.482;9.206;2022-07-06T09:09:05;7.50;;;4.40;;
9819;SDS011;4949;48.482;9.206;2022-07-06T09:14:06;5.97;;;4.10;;
9819;SDS011;4949;48.482;9.206;2022-07-06T09:19:07;5.87;;;5.33;;
9819;SDS011;4949;48.482;9.206;2022-07-06T09:24:10;4.20;;;3.80;;
9819;SDS011;4949;48.482;9.206;2022-07-06T09:29:11;5.87;;;4.07;;
9819;SDS011;4949;48.482;9.206;2022-07-06T09:34:12;4.20;;;3.80;;
9819;SDS011;4949;48.482;9.206;2022-07-06T09:44:32;4.70;;;3.87;;
9819;SDS011;4949;48.482;9.206;2022-07-06T09:49:33;4.87;;;4.37;;
9819;SDS011;4949;48.482;9.206;2022-07-06T09:54:36;5.47;;;4.30;;
9819;SDS011;4949;48.482;9.206;2022-07-06T09:59:39;4.07;;;3.67;;
9819;SDS011;4949;48.482;9.206;2022-07-06T10:04:40;4.13;;;3.67;;
9819;SDS011;4949;48.482;9.206;2022-07-06T10:09:41;5.77;;;3.77;;
9819;SDS011;4949;48.482;9.206;2022-07-06T10:14:41;3.40;;;3.10;;
9819;SDS011;4949;48.482;9.206;2022-07-06T10:19:42;3.90;;;3.60;;
9819;SDS011;4949;48.482;9.206;2022-07-06T10:24:42;3.97;;;3.70;;
9819;SDS011;4949;48.482;9.206;2022-07-06T10:29:43;5.27;;;3.97;;
9819;SDS011;4949;48.482;9.206;2022-07-06T10:34:44;3.83;;;3.50;;
9819;SDS011;4949;48.482;9.206;2022-07-06T10:39:44;4.10;;;3.80;;
9819;SDS011;4949;48.482;9.206;2022-07-06T10:45:06;4.03;;;3.73;;
9819;SDS011;4949;48.482;9.206;2022-07-06T10:50:10;3.70;;;3.40;;
9819;SDS011;4949;48.482;9.206;2022-07-06T10:55:27;4.20;;;3.80;;
9819;SDS011;4949;48.482;9.206;2022-07-06T11:00:50;5.40;;;4.20;;
9819;SDS011;4949;48.482;9.206;2022-07-06T11:05:57;4.37;;;3.93;;
9819;SDS011;4949;48.482;9.206;2022-07-06T11:11:01;4.20;;;3.90;;
9819;SDS011;4949;48.482;9.206;2022-07-06T11:16:16;3.50;;;3.20;;
9819;SDS011;4949;48.482;9.206;2022-07-06T11:21:18;4.80;;;3.23;;
9819;SDS011;4949;48.482;9.206;2022-07-06T11:26:20;4.20;;;3.80;;
9819;SDS011;4949;48.482;9.206;2022-07-06T11:31:21;3.57;;;3.37;;
9819;SDS011;4949;48.482;9.206;2022-07-06T11:36:22;3.37;;;3.07;;
9819;SDS011;4949;48.482;9.206;2022-07-06T11:41:25;4.30;;;3.90;;
9819;SDS011;4949;48.482;9.206;2022-07-06T11:46:34;4.50;;;4.00;;
9819;SDS011;4949;48.482;9.206;2022-07-06T11:51:36;3.77;;;3.40;;
9819;SDS011;4949;48.482;9.206;2022-07-06T11:56:50;4.47;;;3.40;;
9819;SDS011;4949;48.482;9.206;2022-07-06T12:02:06;4.43;;;4.03;;
9819;SDS011;4949;48.482;9.206;2022-07-06T12:07:11;4.53;;;4.07;;
9819;SDS011;4949;48.482;9.206;2022-07-06T12:12:15;3.80;;;3.50;;
9819;SDS011;4949;48.482;9.206;2022-07-06T12:17:17;4.43;;;4.00;;
9819;SDS011;4949;48.482;9.206;2022-07-06T12:22:23;4.07;;;3.43;;
9819;SDS011;4949;48.482;9.206;2022-07-06T12:27:27;3.70;;;3.50;;
9819;SDS011;4949;48.482;9.206;2022-07-06T12:32:27;3.87;;;3.57;;
9819;SDS011;4949;48.482;9.206;2022-07-06T12:37:30;4.33;;;3.10;;
9819;SDS011;4949;48.482;9.206;2022-07-06T12:42:30;3.80;;;3.50;;
9819;SDS011;4949;48.482;9.206;2022-07-06T12:47:33;3.13;;;2.93;;
9819;SDS011;4949;48.482;9.206;2022-07-06T12:52:39;4.10;;;3.80;;
9819;SDS011;4949;48.482;9.206;2022-07-06T12:57:44;4.60;;;3.77;;
9819;SDS011;4949;48.482;9.206;2022-07-06T13:02:46;7.83;;;4.17;;
9819;SDS011;4949;48.482;9.206;2022-07-06T13:07:48;3.70;;;3.40;;
9819;SDS011;4949;48.482;9.206;2022-07-06T13:12:50;4.07;;;3.27;;
9819;SDS011;4949;48.482;9.206;2022-07-06T13:17:50;4.40;;;3.73;;
9819;SDS011;4949;48.482;9.206;2022-07-06T13:22:50;4.47;;;3.97;;
9819;SDS011;4949;48.482;9.206;2022-07-06T13:27:51;4.83;;;4.40;;
9819;SDS011;4949;48.482;9.206;2022-07-06T13:32:51;4.60;;;4.20;;
9819;SDS011;4949;48.482;9.206;2022-07-06T13:37:52;4.77;;;4.37;;
9819;SDS011;4949;48.482;9.206;2022-07-06T13:42:56;4.93;;;4.00;;
9819;SDS011;4949;48.482;9.206;2022-07-06T13:47:56;4.80;;;4.23;;
9819;SDS011;4949;48.482;9.206;2022-07-06T13:52:56;4.83;;;4.37;;
9819;SDS011;4949;48.482;9.206;2022-07-06T13:57:57;4.20;;;3.70;;
9819;SDS011;4949;48.482;9.206;2022-07-06T14:02:57;4.67;;;4.13;;
9819;SDS011;4949;48.482;9.206;2022-07-06T14:07:59;4.00;;;3.70;;
9819;SDS011;4949;48.482;9.206;2022-07-06T14:12:59;4.10;;;3.80;;
9819;SDS011;4949;48.482;9.206;2022-07-06T14:18:02;4.37;;;3.97;;
9819;SDS011;4949;48.482;9.206;2022-07-06T14:23:02;4.13;;;3.83;;
9819;SDS011;4949;48.482;9.206;2022-07-06T14:28:03;4.10;;;3.67;;
9819;SDS011;4949;48.482;9.206;2022-07-06T14:33:04;4.40;;;4.00;;
9819;SDS011;4949;48.482;9.206;2022-07-06T14:38:11;6.50;;;3.90;;
9819;SDS011;4949;48.482;9.206;2022-07-06T14:43:11;4.30;;;3.90;;
9819;SDS011;4949;48.482;9.206;2022-07-06T14:48:12;4.73;;;3.60;;
9819;SDS011;4949;48.482;9.206;2022-07-06T14:53:16;7.20;;;3.70;;
9819;SDS011;4949;48.482;9.206;2022-07-06T14:58:16;6.37;;;3.43;;
9819;SDS011;4949;48.482;9.206;2022-07-06T15:03:18;4.33;;;4.00;;
9819;SDS011;4949;48.482;9.206;2022-07-06T15:08:23;5.70;;;3.50;;
9819;SDS011;4949;48.482;9.206;2022-07-06T15:13:26;3.43;;;3.23;;
9819;SDS011;4949;48.482;9.206;2022-07-06T15:18:26;4.57;;;4.17;;
9819;SDS011;4949;48.482;9.206;2022-07-06T15:23:27;3.70;;;3.40;;
9819;SDS011;4949;48.482;9.206;2022-07-06T15:28:27;4.00;;;3.70;;
9819;SDS011;4949;48.482;9.206;2022-07-06T15:33:30;4.00;;;3.70;;
9819;SDS011;4949;48.482;9.206;2022-07-06T15:38:31;3.77;;;3.47;;
9819;SDS011;4949;48.482;9.206;2022-07-06T15:43:35;3.10;;;2.90;;
9819;SDS011;4949;48.482;9.206;2022-07-06T15:48:38;3.53;;;3.23;;
9819;SDS011;4949;48.482;9.206;2022-07-06T15:53:40;3.73;;;3.43;;
9819;SDS011;4949;48.482;9.206;2022-07-06T15:58:45;3.60;;;3.20;;
9819;SDS011;4949;48.482;9.206;2022-07-06T16:03:45;3.30;;;3.03;;
9819;SDS011;4949;48.482;9.206;2022-07-06T16:08:45;3.03;;;2.73;;
9819;SDS011;4949;48.482;9.206;2022-07-06T16:13:46;4.30;;;2.70;;
9819;SDS011;4949;48.482;9.206;2022-07-06T16:18:48;3.63;;;3.20;;
9819;SDS011;4949;48.482;9.206;2022-07-06T16:23:49;4.60;;;3.80;;
9819;SDS011;4949;48.482;9.206;2022-07-06T16:28:49;4.80;;;3.63;;
9819;SDS011;4949;48.482;9.206;2022-07-06T16:33:50;4.30;;;3.40;;
9819;SDS011;4949;48.482;9.206;2022-07-06T16:38:53;5.53;;;3.03;;
9819;SDS011;4949;48.482;9.206;2022-07-06T16:43:53;3.03;;;2.83;;
9819;SDS011;4949;48.482;9.206;2022-07-06T16:48:56;3.50;;;3.23;;
9819;SDS011;4949;48.482;9.206;2022-07-06T16:53:57;3.30;;;2.97;;
9819;SDS011;4949;48.482;9.206;2022-07-06T16:58:57;3.00;;;2.80;;
9819;SDS011;4949;48.482;9.206;2022-07-06T17:04:00;5.37;;;2.73;;
9819;SDS011;4949;48.482;9.206;2022-07-06T17:09:03;3.00;;;2.70;;
9819;SDS011;4949;48.482;9.206;2022-07-06T17:14:03;3.13;;;2.83;;
9819;SDS011;4949;48.482;9.206;2022-07-06T17:19:04;3.83;;;2.57;;
9819;SDS011;4949;48.482;9.206;2022-07-06T17:24:04;3.50;;;2.60;;
9819;SDS011;4949;48.482;9.206;2022-07-06T17:29:06;3.13;;;2.80;;
9819;SDS011;4949;48.482;9.206;2022-07-06T17:34:09;2.70;;;2.50;;
9819;SDS011;4949;48.482;9.206;2022-07-06T17:39:09;3.93;;;2.70;;
9819;SDS011;4949;48.482;9.206;2022-07-06T17:44:10;2.67;;;2.47;;
9819;SDS011;4949;48.482;9.206;2022-07-06T17:49:11;2.73;;;2.50;;
9819;SDS011;4949;48.482;9.206;2022-07-06T17:54:12;2.90;;;2.70;;
9819;SDS011;4949;48.482;9.206;2022-07-06T17:59:12;3.00;;;2.70;;
9819;SDS011;4949;48.482;9.206;2022-07-06T18:04:13;2.60;;;2.40;;
9819;SDS011;4949;48.482;9.206;2022-07-06T18:09:16;3.43;;;2.83;;
9819;SDS011;4949;48.482;9.206;2022-07-06T18:14:16;4.00;;;2.37;;
9819;SDS011;4949;48.482;9.206;2022-07-06T18:19:17;2.80;;;2.60;;
9819;SDS011;4949;48.482;9.206;2022-07-06T18:24:17;2.53;;;2.20;;
9819;SDS011;4949;48.482;9.206;2022-07-06T18:29:17;3.50;;;2.67;;
9819;SDS011;4949;48.482;9.206;2022-07-06T18:34:18;2.50;;;2.30;;
9819;SDS011;4949;48.482;9.206;2022-07-06T18:39:19;2.50;;;2.30;;
9819;SDS011;4949;48.482;9.206;2022-07-06T18:44:19;2.70;;;2.07;;
9819;SDS011;4949;48.482;9.206;2022-07-06T18:49:19;2.90;;;2.60;;
9819;SDS011;4949;48.482;9.206;2022-07-06T18:54:20;3.80;;;2.97;;
9819;SDS011;4949;48.482;9.206;2022-07-06T18:59:23;3.23;;;2.93;;
9819;SDS011;4949;48.482;9.206;2022-07-06T19:04:25;3.47;;;2.90;;
9819;SDS011;4949;48.482;9.206;2022-07-06T19:09:26;2.90;;;2.70;;
9819;SDS011;4949;48.482;9.206;2022-07-06T19:14:27;2.83;;;2.53;;
9819;SDS011;4949;48.482;9.206;2022-07-06T19:19:27;3.30;;;3.00;;
9819;SDS011;4949;48.482;9.206;2022-07-06T19:24:28;5.53;;;2.93;;
9819;SDS011;4949;48.482;9.206;2022-07-06T19:29:28;3.50;;;3.13;;
9819;SDS011;4949;48.482;9.206;2022-07-06T19:34:29;5.27;;;3.27;;
9819;SDS011;4949;48.482;9.206;2022-07-06T19:39:29;5.00;;;3.80;;
9819;SDS011;4949;48.482;9.206;2022-07-06T19:44:32;4.43;;;4.00;;
9819;SDS011;4949;48.482;9.206;2022-07-06T19:49:33;3.60;;;3.30;;
9819;SDS011;4949;48.482;9.206;2022-07-06T19:54:36;3.70;;;3.40;;
9819;SDS011;4949;48.482;9.206;2022-07-06T19:59:36;4.23;;;3.83;;
9819;SDS011;4949;48.482;9.206;2022-07-06T20:04:37;9.60;;;3.90;;
9819;SDS011;4949;48.482;9.206;2022-07-06T20:09:38;4.77;;;3.40;;
9819;SDS011;4949;48.482;9.206;2022-07-06T20:14:38;3.63;;;2.90;;
9819;SDS011;4949;48.482;9.206;2022-07-06T20:19:39;3.60;;;3.30;;
9819;SDS011;4949;48.482;9.206;2022-07-06T20:24:42;3.40;;;3.10;;
9819;SDS011;4949;48.482;9.206;2022-07-06T20:29:42;4.90;;;3.40;;
9819;SDS011;4949;48.482;9.206;2022-07-06T20:34:43;3.27;;;2.97;;
9819;SDS011;4949;48.482;9.206;2022-07-06T20:39:43;3.50;;;2.83;;
9819;SDS011;4949;48.482;9.206;2022-07-06T20:44:44;3.60;;;2.70;;
9819;SDS011;4949;48.482;9.206;2022-07-06T20:49:46;2.70;;;2.50;;
9819;SDS011;4949;48.482;9.206;2022-07-06T20:54:47;3.27;;;2.97;;
9819;SDS011;4949;48.482;9.206;2022-07-06T20:59:47;4.63;;;2.77;;
9819;SDS011;4949;48.482;9.206;2022-07-06T21:04:47;3.20;;;2.90;;
9819;SDS011;4949;48.482;9.206;2022-07-06T21:09:48;4.17;;;3.07;;
9819;SDS011;4949;48.482;9.206;2022-07-06T21:14:51;3.60;;;2.80;;
9819;SDS011;4949;48.482;9.206;2022-07-06T21:19:53;3.07;;;2.87;;
9819;SDS011;4949;48.482;9.206;2022-07-06T21:24:54;3.57;;;3.23;;
9819;SDS011;4949;48.482;9.206;2022-07-06T21:29:54;5.33;;;3.10;;
9819;SDS011;4949;48.482;9.206;2022-07-06T21:34:55;3.10;;;2.80;;
9819;SDS011;4949;48.482;9.206;2022-07-06T21:39:55;4.53;;;3.17;;
9819;SDS011;4949;48.482;9.206;2022-07-06T21:44:55;3.47;;;2.60;;
9819;SDS011;4949;48.482;9.206;2022-07-06T21:49:58;5.80;;;3.07;;
9819;SDS011;4949;48.482;9.206;2022-07-06T21:54:59;4.07;;;3.00;;
9819;SDS011;4949;48.482;9.206;2022-07-06T21:59:59;8.60;;;4.27;;
9819;SDS011;4949;48.482;9.206;2022-07-06T22:04:59;5.30;;;4.80;;
9819;SDS011;4949;48.482;9.206;2022-07-06T22:10:00;3.83;;;3.53;;
9819;SDS011;4949;48.482;9.206;2022-07-06T22:15:00;3.13;;;2.93;;
9819;SDS011;4949;48.482;9.206;2022-07-06T22:20:01;6.70;;;2.83;;
9819;SDS011;4949;48.482;9.206;2022-07-06T22:25:02;2.90;;;2.60;;
9819;SDS011;4949;48.482;9.206;2022-07-06T22:30:04;2.67;;;2.47;;
9819;SDS011;4949;48.482;9.206;2022-07-06T22:35:05;3.33;;;2.50;;
9819;SDS011;4949;48.482;9.206;2022-07-06T22:40:05;5.47;;;3.00;;
9819;SDS011;4949;48.482;9.206;2022-07-06T22:45:25;3.30;;;2.80;;
9819;SDS011;4949;48.482;9.206;2022-07-06T22:50:25;3.77;;;3.40;;
9819;SDS011;4949;48.482;9.206;2022-07-06T22:55:25;2.83;;;2.63;;
9819;SDS011;4949;48.482;9.206;2022-07-06T23:00:26;2.93;;;2.70;;
9819;SDS011;4949;48.482;9.206;2022-07-06T23:05:26;7.30;;;3.17;;
9819;SDS011;4949;48.482;9.206;2022-07-06T23:52:41;3.53;;;2.67;;
